createdAt,value
2022-10-14T00:00:22.826Z,91.03
2022-10-14T00:02:49.848Z,89.90
2022-10-14T00:05:16.109Z,89.42
2022-10-14T00:07:42.440Z,89.50
2022-10-14T00:10:08.695Z,90.08
2022-10-14T00:12:34.940Z,89.50
2022-10-14T00:15:01.197Z,91.29
2022-10-14T00:17:27.438Z,91.03
2022-10-14T00:19:53.694Z,90.34
2022-10-14T00:22:19.943Z,89.95
2022-10-14T00:24:46.189Z,90.32
2022-10-14T00:27:12.444Z,90.71
2022-10-14T00:29:38.706Z,91.35
2022-10-14T00:32:05.064Z,91.36
2022-10-14T00:34:31.329Z,90.55
2022-10-14T00:36:57.612Z,89.80
2022-10-14T00:39:23.894Z,89.73
2022-10-14T00:41:50.200Z,89.66
2022-10-14T00:44:16.461Z,89.54
2022-10-14T00:46:42.733Z,89.44
2022-10-14T00:49:08.992Z,89.71
2022-10-14T00:51:35.257Z,89.81
2022-10-14T00:54:01.529Z,89.76
2022-10-14T00:56:27.787Z,89.69
2022-10-14T00:58:54.184Z,89.84
2022-10-14T01:01:20.436Z,90.15
2022-10-14T01:03:46.720Z,90.21
2022-10-14T01:06:12.978Z,90.63
2022-10-14T01:08:39.264Z,91.06
2022-10-14T01:11:05.527Z,91.61
2022-10-14T01:13:31.793Z,91.40
2022-10-14T01:15:58.054Z,90.95
2022-10-14T01:18:24.316Z,91.44
2022-10-14T01:20:50.619Z,91.59
2022-10-14T01:23:16.867Z,91.72
2022-10-14T01:25:43.262Z,91.23
2022-10-14T01:28:09.517Z,91.44
2022-10-14T01:30:35.807Z,91.39
2022-10-14T01:33:02.092Z,90.98
2022-10-14T01:35:28.381Z,90.60
2022-10-14T01:37:54.643Z,91.29
2022-10-14T01:40:20.895Z,92.92
2022-10-14T01:42:47.209Z,93.42
2022-10-14T01:45:13.672Z,92.66
2022-10-14T01:47:39.928Z,92.08
2022-10-14T01:50:06.217Z,92.62
2022-10-14T01:52:32.466Z,91.83
2022-10-14T01:54:58.734Z,91.31
2022-10-14T01:57:24.987Z,90.89
2022-10-14T01:59:51.261Z,91.71
2022-10-14T02:02:17.510Z,91.19
2022-10-14T02:04:43.797Z,91.05
2022-10-14T02:07:10.300Z,91.18
2022-10-14T02:09:36.623Z,91.35
2022-10-14T02:12:02.890Z,91.39
2022-10-14T02:14:29.183Z,91.95
2022-10-14T02:16:55.951Z,91.46
2022-10-14T02:19:22.246Z,91.33
2022-10-14T02:21:48.640Z,90.96
2022-10-14T02:24:14.947Z,90.78
2022-10-14T02:26:41.199Z,91.46
2022-10-14T02:29:07.468Z,91.40
2022-10-14T02:31:33.760Z,91.39
2022-10-14T02:34:00.024Z,91.74
2022-10-14T02:36:26.309Z,93.01
2022-10-14T02:38:52.554Z,93.52
2022-10-14T02:41:18.802Z,93.99
2022-10-14T02:43:45.073Z,95.01
2022-10-14T02:46:11.369Z,94.44
2022-10-14T02:48:37.629Z,93.63
2022-10-14T02:51:03.896Z,92.84
2022-10-14T02:53:30.753Z,92.70
2022-10-14T02:55:57.019Z,93.34
2022-10-14T02:58:23.282Z,92.67
2022-10-14T03:00:49.558Z,92.71
2022-10-14T03:03:15.845Z,93.34
2022-10-14T03:05:42.086Z,94.16
2022-10-14T03:08:08.386Z,93.47
2022-10-14T03:10:34.683Z,93.55
2022-10-14T03:13:00.944Z,94.38
2022-10-14T03:15:27.219Z,94.11
2022-10-14T03:17:53.499Z,93.13
2022-10-14T03:20:19.774Z,92.48
2022-10-14T03:22:46.040Z,91.97
2022-10-14T03:25:12.299Z,91.97
2022-10-14T03:27:38.572Z,92.05
2022-10-14T03:30:04.822Z,91.32
2022-10-14T03:32:31.244Z,91.24
2022-10-14T03:34:57.700Z,91.30
2022-10-14T03:37:24.140Z,91.66
2022-10-14T03:39:50.419Z,92.34
2022-10-14T03:42:16.663Z,92.68
2022-10-14T03:44:43.392Z,92.40
2022-10-14T03:47:09.638Z,91.87
2022-10-14T03:49:35.914Z,91.61
2022-10-14T03:52:02.175Z,91.92
2022-10-14T03:54:28.468Z,91.72
2022-10-14T03:56:54.727Z,91.39
2022-10-14T03:59:20.986Z,91.49
2022-10-14T04:01:47.298Z,91.85
2022-10-14T04:04:13.775Z,91.55
2022-10-14T04:06:40.031Z,91.29
2022-10-14T04:09:06.310Z,91.63
2022-10-14T04:11:32.584Z,91.83
2022-10-14T04:13:58.875Z,91.92
2022-10-14T04:16:25.327Z,91.78
2022-10-14T04:18:51.620Z,92.65
2022-10-14T04:21:17.880Z,92.09
2022-10-14T04:23:44.146Z,92.50
2022-10-14T04:26:10.474Z,92.50
2022-10-14T04:28:36.834Z,92.44
2022-10-14T04:31:03.126Z,92.27
2022-10-14T04:33:29.461Z,92.02
2022-10-14T04:35:55.717Z,92.18
2022-10-14T04:38:21.970Z,93.05
2022-10-14T04:40:48.231Z,93.10
2022-10-14T04:43:14.498Z,93.41
2022-10-14T04:45:40.756Z,92.87
2022-10-14T04:48:07.026Z,92.98
2022-10-14T04:50:33.270Z,92.94
2022-10-14T04:52:59.535Z,92.86
2022-10-14T04:55:25.778Z,92.56
2022-10-14T04:57:52.034Z,92.44
2022-10-14T05:00:18.372Z,92.27
2022-10-14T05:02:44.638Z,92.54
2022-10-14T05:05:10.901Z,92.81
2022-10-14T05:07:37.197Z,92.80
2022-10-14T05:10:04.578Z,92.29
2022-10-14T05:12:30.831Z,92.43
2022-10-14T05:14:57.091Z,92.36
2022-10-14T05:17:23.357Z,92.33
2022-10-14T05:19:49.674Z,92.47
2022-10-14T05:22:15.921Z,92.25
2022-10-14T05:24:42.178Z,92.15
2022-10-14T05:27:08.422Z,92.10
2022-10-14T05:29:34.706Z,92.30
2022-10-14T05:32:00.969Z,92.58
2022-10-14T05:34:27.232Z,92.43
2022-10-14T05:36:53.495Z,92.71
2022-10-14T05:39:19.766Z,92.74
2022-10-14T05:41:46.006Z,92.88
2022-10-14T05:44:13.302Z,92.83
2022-10-14T05:46:39.554Z,92.48
2022-10-14T05:49:06.023Z,92.32
2022-10-14T05:51:32.521Z,92.08
2022-10-14T05:53:58.784Z,92.65
2022-10-14T05:56:25.096Z,92.35
2022-10-14T05:58:51.353Z,92.13
2022-10-14T06:01:17.598Z,91.80
2022-10-14T06:03:43.867Z,92.02
2022-10-14T06:06:10.123Z,91.83
2022-10-14T06:08:36.415Z,91.91
2022-10-14T06:11:02.991Z,91.72
2022-10-14T06:13:29.284Z,92.03
2022-10-14T06:15:55.538Z,91.90
2022-10-14T06:18:22.000Z,91.54
2022-10-14T06:20:48.276Z,91.55
2022-10-14T06:23:14.535Z,91.75
2022-10-14T06:25:40.807Z,91.74
2022-10-14T06:28:07.071Z,92.12
2022-10-14T06:30:33.635Z,91.86
2022-10-14T06:32:59.896Z,92.40
2022-10-14T06:35:26.139Z,92.24
2022-10-14T06:37:52.399Z,91.60
2022-10-14T06:40:18.661Z,91.32
2022-10-14T06:42:45.294Z,91.50
2022-10-14T06:45:11.543Z,91.14
2022-10-14T06:47:37.783Z,90.34
2022-10-14T06:50:04.036Z,90.62
2022-10-14T06:52:30.297Z,90.68
2022-10-14T06:54:56.552Z,90.72
2022-10-14T06:57:22.828Z,90.89
2022-10-14T06:59:49.145Z,90.46
2022-10-14T07:02:15.438Z,90.11
2022-10-14T07:04:41.801Z,90.43
2022-10-14T07:07:08.439Z,89.98
2022-10-14T07:09:34.690Z,90.16
2022-10-14T07:12:01.417Z,89.88
2022-10-14T07:14:27.698Z,89.54
2022-10-14T07:16:54.029Z,89.21
2022-10-14T07:19:20.285Z,89.91
2022-10-14T07:21:46.727Z,89.14
2022-10-14T07:24:12.974Z,88.65
2022-10-14T07:26:39.250Z,88.33
2022-10-14T07:29:05.534Z,88.31
2022-10-14T07:31:31.807Z,88.65
2022-10-14T07:33:58.068Z,88.46
2022-10-14T07:36:24.434Z,87.74
2022-10-14T07:38:50.804Z,87.74
2022-10-14T07:41:17.190Z,87.20
2022-10-14T07:43:43.493Z,86.90
2022-10-14T07:46:09.780Z,86.78
2022-10-14T07:48:55.811Z,86.98
2022-10-14T07:51:22.440Z,86.81
2022-10-14T07:53:48.690Z,86.72
2022-10-14T07:56:14.995Z,86.88
2022-10-14T07:58:44.518Z,86.81
2022-10-14T08:01:11.103Z,87.05
2022-10-14T08:03:37.348Z,86.76
2022-10-14T08:06:03.658Z,86.33
2022-10-14T08:08:29.926Z,85.91
2022-10-14T08:10:56.189Z,85.09
2022-10-14T08:13:22.454Z,85.46
2022-10-14T08:15:48.767Z,84.98
2022-10-14T08:18:15.023Z,85.20
2022-10-14T08:20:41.705Z,85.28
2022-10-14T08:23:07.968Z,84.44
2022-10-14T08:25:34.361Z,84.96
2022-10-14T08:28:00.630Z,84.69
2022-10-14T08:30:26.965Z,84.47
2022-10-14T08:32:53.224Z,84.39
2022-10-14T08:35:19.470Z,84.41
2022-10-14T08:37:45.727Z,84.32
2022-10-14T08:40:11.988Z,83.91
2022-10-14T08:42:38.249Z,83.58
2022-10-14T08:45:08.670Z,83.57
2022-10-14T08:47:34.910Z,84.20
2022-10-14T08:50:03.983Z,84.24
2022-10-14T08:52:33.651Z,83.68
2022-10-14T08:55:02.807Z,83.08
2022-10-14T08:57:29.097Z,83.42
2022-10-14T08:59:55.403Z,83.38
2022-10-14T09:02:21.846Z,83.79
2022-10-14T09:04:48.585Z,83.30
2022-10-14T09:07:14.863Z,82.23
2022-10-14T09:09:41.147Z,82.82
2022-10-14T09:12:07.424Z,81.85
2022-10-14T09:14:33.717Z,81.23
2022-10-14T09:17:00.012Z,81.98
2022-10-14T09:19:27.051Z,81.89
2022-10-14T09:21:53.752Z,81.67
2022-10-14T09:24:20.158Z,81.77
2022-10-14T09:26:46.495Z,81.53
2022-10-14T09:29:12.823Z,80.39
2022-10-14T09:31:39.107Z,81.18
2022-10-14T09:34:05.372Z,81.08
2022-10-14T09:36:31.845Z,81.71
2022-10-14T09:39:02.284Z,82.00
2022-10-14T09:41:31.697Z,82.08
2022-10-14T09:43:57.961Z,82.33
2022-10-14T09:46:24.226Z,81.85
2022-10-14T09:48:50.487Z,81.02
2022-10-14T09:51:16.748Z,80.58
2022-10-14T09:53:45.162Z,79.55
2022-10-14T09:56:11.420Z,79.69
2022-10-14T09:58:37.694Z,80.51
2022-10-14T10:01:04.011Z,80.79
2022-10-14T10:03:32.435Z,81.10
2022-10-14T10:05:58.755Z,81.06
2022-10-14T10:08:26.507Z,80.70
2022-10-14T10:10:52.763Z,80.60
2022-10-14T10:13:19.154Z,80.30
2022-10-14T10:15:45.412Z,80.50
2022-10-14T10:18:11.675Z,80.16
2022-10-14T10:20:37.928Z,79.76
2022-10-14T10:23:04.197Z,80.27
2022-10-14T10:25:30.463Z,81.05
2022-10-14T10:27:56.747Z,80.93
2022-10-14T10:30:24.503Z,80.47
2022-10-14T10:32:50.771Z,80.37
2022-10-14T10:35:17.036Z,79.47
2022-10-14T10:37:44.999Z,78.49
2022-10-14T10:40:11.251Z,77.83
2022-10-14T10:42:39.748Z,77.73
2022-10-14T10:45:06.074Z,76.77
2022-10-14T10:47:32.375Z,75.60
2022-10-14T10:49:58.645Z,76.16
2022-10-14T10:52:25.132Z,76.32
2022-10-14T10:54:51.498Z,76.35
2022-10-14T10:57:17.745Z,75.38
2022-10-14T10:59:44.040Z,76.40
2022-10-14T11:02:10.732Z,76.51
2022-10-14T11:04:37.074Z,76.42
2022-10-14T11:07:27.004Z,75.42
2022-10-14T11:10:12.937Z,74.88
2022-10-14T11:12:39.201Z,75.90
2022-10-14T11:15:05.495Z,75.46
2022-10-14T11:17:31.845Z,75.91
2022-10-14T11:19:58.926Z,75.53
2022-10-14T11:22:28.810Z,75.45
2022-10-14T11:24:58.402Z,75.57
2022-10-14T11:27:25.020Z,75.19
2022-10-14T11:29:51.523Z,75.30
2022-10-14T11:32:17.786Z,75.01
2022-10-14T11:34:44.092Z,75.49
2022-10-14T11:37:10.345Z,76.05
2022-10-14T11:39:36.627Z,76.31
2022-10-14T11:42:03.759Z,75.91
2022-10-14T11:44:30.125Z,76.38
2022-10-14T11:46:56.559Z,75.94
2022-10-14T11:49:22.818Z,75.60
2022-10-14T11:51:49.100Z,74.97
2022-10-14T11:54:15.398Z,74.92
2022-10-14T11:56:41.648Z,74.60
2022-10-14T11:59:17.095Z,74.79
2022-10-14T12:01:43.343Z,75.03
2022-10-14T12:04:09.638Z,73.76
2022-10-14T12:06:35.957Z,74.34
2022-10-14T12:09:02.206Z,75.01
2022-10-14T12:11:28.784Z,73.98
2022-10-14T12:13:55.056Z,73.60
2022-10-14T12:16:21.342Z,73.15
2022-10-14T12:18:47.615Z,72.71
2022-10-14T12:21:14.114Z,72.83
2022-10-14T12:23:40.368Z,70.70
2022-10-14T12:26:06.624Z,71.96
2022-10-14T12:28:32.924Z,72.40
2022-10-14T12:31:00.675Z,72.50
2022-10-14T12:33:26.944Z,72.28
2022-10-14T12:35:53.450Z,72.33
2022-10-14T12:38:19.702Z,72.93
2022-10-14T12:40:49.197Z,72.75
2022-10-14T12:43:15.473Z,72.45
2022-10-14T12:48:09.226Z,71.90
2022-10-14T12:50:35.504Z,72.62
2022-10-14T12:53:01.795Z,72.59
2022-10-14T12:55:28.090Z,73.40
2022-10-14T12:57:54.988Z,74.12
2022-10-14T13:00:21.250Z,74.91
2022-10-14T13:02:47.735Z,75.07
2022-10-14T13:05:14.006Z,75.31
2022-10-14T13:07:41.775Z,75.05
2022-10-14T13:10:08.498Z,74.97
2022-10-14T13:12:35.100Z,74.67
2022-10-14T13:15:01.396Z,74.79
2022-10-14T13:17:28.095Z,74.96
2022-10-14T13:19:54.342Z,74.77
2022-10-14T13:22:20.618Z,74.87
2022-10-14T13:24:46.872Z,74.84
2022-10-14T13:30:15.990Z,74.51
2022-10-14T13:32:42.263Z,74.99
2022-10-14T13:35:09.087Z,75.19
2022-10-14T13:37:35.403Z,74.68
2022-10-14T13:40:01.703Z,74.68
2022-10-14T13:42:28.860Z,74.50
2022-10-14T13:44:55.157Z,74.86
2022-10-14T13:47:21.710Z,74.41
2022-10-14T13:49:48.137Z,74.47
2022-10-14T13:52:14.425Z,73.93
2022-10-14T13:54:40.700Z,74.34
2022-10-14T13:57:38.359Z,74.62
2022-10-14T14:02:39.774Z,74.81
2022-10-14T14:05:06.048Z,74.46
2022-10-14T14:08:08.008Z,74.57
2022-10-14T14:10:18.602Z,74.66
2022-10-14T14:12:45.004Z,74.19
2022-10-14T14:15:11.403Z,74.46
2022-10-14T14:17:37.661Z,74.61
2022-10-14T14:20:03.958Z,74.99
2022-10-14T14:22:30.294Z,74.40
2022-10-14T14:25:00.528Z,73.62
2022-10-14T14:27:30.287Z,72.78
2022-10-14T14:29:56.603Z,72.18
2022-10-14T14:32:23.000Z,72.13
2022-10-14T14:34:49.374Z,72.50
2022-10-14T14:40:02.102Z,71.59
2022-10-14T14:42:28.529Z,71.62
2022-10-14T14:44:54.806Z,71.38
2022-10-14T14:47:21.402Z,71.52
2022-10-14T14:49:47.919Z,71.46
2022-10-14T14:52:14.171Z,71.63
2022-10-14T14:54:40.435Z,71.63
2022-10-14T14:57:06.690Z,71.54
2022-10-14T14:59:33.003Z,71.84
2022-10-14T15:04:26.479Z,71.74
2022-10-14T15:09:56.359Z,72.25
2022-10-14T15:12:22.865Z,72.46
2022-10-14T15:14:49.286Z,72.32
2022-10-14T15:17:15.779Z,72.74
2022-10-14T15:19:42.027Z,72.68
2022-10-14T15:22:08.287Z,72.88
2022-10-14T15:24:34.554Z,72.88
2022-10-14T15:27:00.860Z,73.16
2022-10-14T15:29:27.126Z,72.83
2022-10-14T15:31:53.374Z,73.11
2022-10-14T15:34:19.664Z,72.67
2022-10-14T15:36:45.968Z,72.58
2022-10-14T15:39:13.621Z,72.10
2022-10-14T15:41:39.932Z,71.84
2022-10-14T15:44:06.195Z,72.04
2022-10-14T15:46:51.102Z,72.23
2022-10-14T15:49:17.368Z,72.15
2022-10-14T15:51:43.676Z,72.40
2022-10-14T15:54:09.947Z,71.70
2022-10-14T15:56:36.256Z,71.62
2022-10-14T15:59:02.508Z,72.04
2022-10-14T16:01:28.877Z,72.48
2022-10-14T16:03:55.403Z,72.16
2022-10-14T16:06:22.739Z,72.21
2022-10-14T16:08:49.169Z,72.41
2022-10-14T16:11:15.415Z,72.26
2022-10-14T16:13:41.680Z,72.16
2022-10-14T16:16:07.955Z,72.15
2022-10-14T16:18:34.212Z,72.39
2022-10-14T16:21:00.486Z,72.55
2022-10-14T16:23:29.567Z,72.24
2022-10-14T16:26:00.138Z,72.39
2022-10-14T16:28:26.453Z,72.68
2022-10-14T16:30:52.793Z,72.57
2022-10-14T16:33:19.062Z,72.80
2022-10-14T16:35:45.310Z,72.99
2022-10-14T16:38:11.589Z,72.83
2022-10-14T16:40:37.839Z,73.20
2022-10-14T16:43:04.095Z,73.05
2022-10-14T16:45:30.350Z,73.37
2022-10-14T16:47:57.149Z,73.67
2022-10-14T16:50:23.441Z,73.96
2022-10-14T16:53:08.659Z,74.31
2022-10-14T16:55:34.927Z,74.45
2022-10-14T16:58:01.191Z,74.62
2022-10-14T17:00:27.456Z,75.15
2022-10-14T17:02:54.868Z,75.44
2022-10-14T17:05:21.115Z,75.92
2022-10-14T17:07:47.376Z,76.06
2022-10-14T17:10:13.638Z,76.22
2022-10-14T17:12:39.962Z,76.08
2022-10-14T17:15:06.216Z,76.36
2022-10-14T17:17:32.492Z,76.40
2022-10-14T17:19:58.823Z,76.71
2022-10-14T17:22:25.387Z,77.26
2022-10-14T17:24:51.886Z,77.20
2022-10-14T17:27:24.100Z,77.49
2022-10-14T17:29:50.452Z,77.72
2022-10-14T17:32:17.509Z,78.08
2022-10-14T17:34:43.908Z,78.35
2022-10-14T17:37:10.177Z,78.91
2022-10-14T17:39:37.224Z,79.33
2022-10-14T17:42:03.839Z,79.08
2022-10-14T17:44:30.104Z,78.92
2022-10-14T17:46:57.032Z,79.15
2022-10-14T17:49:23.344Z,79.19
2022-10-14T17:51:49.616Z,79.22
2022-10-14T17:54:15.875Z,79.29
2022-10-14T17:56:42.970Z,79.07
2022-10-14T17:59:09.247Z,79.40
2022-10-14T18:01:37.996Z,79.38
2022-10-14T18:04:21.887Z,79.12
2022-10-14T18:06:48.428Z,79.01
2022-10-14T18:09:14.722Z,79.17
2022-10-14T18:12:07.724Z,79.14
2022-10-14T18:14:28.973Z,79.49
2022-10-14T18:16:55.235Z,79.44
2022-10-14T18:19:21.823Z,80.10
2022-10-14T18:21:48.118Z,79.90
2022-10-14T18:24:14.395Z,79.88
2022-10-14T18:26:41.107Z,79.72
2022-10-14T18:29:07.469Z,79.88
2022-10-14T18:31:33.790Z,79.91
2022-10-14T18:34:00.087Z,79.95
2022-10-14T18:36:26.339Z,80.46
2022-10-14T18:38:52.604Z,80.65
2022-10-14T18:41:18.892Z,81.01
2022-10-14T18:43:45.170Z,81.45
2022-10-14T18:46:13.120Z,81.27
2022-10-14T18:48:39.306Z,81.80
2022-10-14T18:51:05.565Z,81.92
2022-10-14T18:53:31.814Z,82.18
2022-10-14T18:56:00.927Z,82.38
2022-10-14T18:58:28.036Z,83.22
2022-10-14T19:00:54.339Z,83.17
2022-10-14T19:03:20.672Z,83.14
2022-10-14T19:05:47.149Z,83.20
2022-10-14T19:10:40.614Z,83.00
2022-10-14T19:13:08.094Z,83.13
2022-10-14T19:15:45.197Z,83.13
2022-10-14T19:18:15.100Z,83.26
2022-10-14T19:20:41.844Z,83.15
2022-10-14T19:23:08.130Z,83.42
2022-10-14T19:25:36.024Z,83.26
2022-10-14T19:28:02.276Z,83.16
2022-10-14T19:30:28.535Z,83.43
2022-10-14T19:32:54.817Z,83.54
2022-10-14T19:35:21.656Z,83.32
2022-10-14T19:37:48.039Z,83.48
2022-10-14T19:40:14.309Z,83.69
2022-10-14T19:42:40.615Z,83.70
2022-10-14T19:45:06.863Z,83.91
2022-10-14T19:47:33.123Z,83.88
2022-10-14T19:49:59.409Z,83.68
2022-10-14T19:52:25.683Z,83.92
2022-10-14T19:54:51.933Z,84.03
2022-10-14T19:57:18.205Z,83.73
2022-10-14T19:59:44.492Z,83.63
2022-10-14T20:02:10.747Z,83.32
2022-10-14T20:04:36.990Z,83.51
2022-10-14T20:07:03.244Z,83.53
2022-10-14T20:09:29.576Z,83.13
2022-10-14T20:11:55.922Z,83.31
2022-10-14T20:14:22.245Z,83.42
2022-10-14T20:16:52.277Z,83.38
2022-10-14T20:19:21.410Z,83.34
2022-10-14T20:21:47.793Z,84.00
2022-10-14T20:24:14.048Z,83.90
2022-10-14T20:26:41.339Z,83.39
2022-10-14T20:29:07.587Z,83.24
2022-10-14T20:31:33.838Z,83.34
2022-10-14T20:34:00.096Z,83.32
2022-10-14T20:36:26.361Z,83.32
2022-10-14T20:38:52.631Z,83.28
2022-10-14T20:41:18.897Z,83.20
2022-10-14T20:43:45.159Z,83.26
2022-10-14T20:46:11.419Z,82.94
2022-10-14T20:48:37.694Z,82.58
2022-10-14T20:51:03.996Z,82.35
2022-10-14T20:53:31.044Z,82.46
2022-10-14T20:55:57.307Z,82.47
2022-10-14T20:58:24.024Z,82.20
2022-10-14T21:00:50.295Z,82.72
2022-10-14T21:03:16.689Z,81.96
2022-10-14T21:05:42.944Z,82.08
2022-10-14T21:08:09.228Z,81.88
2022-10-14T21:10:35.792Z,82.02
2022-10-14T21:13:02.295Z,81.90
2022-10-14T21:15:28.544Z,82.07
2022-10-14T21:17:54.852Z,81.36
2022-10-14T21:20:21.112Z,81.35
2022-10-14T21:22:47.396Z,81.21
2022-10-14T21:25:13.732Z,81.20
2022-10-14T21:27:40.034Z,81.25
2022-10-14T21:30:06.292Z,80.96
2022-10-14T21:32:32.548Z,81.01
2022-10-14T21:34:59.005Z,80.86
2022-10-14T21:37:25.385Z,81.05
2022-10-14T21:39:51.643Z,81.16
2022-10-14T21:42:17.912Z,81.46
2022-10-14T21:44:44.162Z,81.63
2022-10-14T21:47:10.439Z,81.94
2022-10-14T21:49:36.691Z,81.92
2022-10-14T21:52:02.951Z,82.09
2022-10-14T21:54:29.201Z,82.56
2022-10-14T21:59:22.707Z,83.71
2022-10-14T22:01:49.004Z,83.52
2022-10-14T22:04:15.257Z,84.04
2022-10-14T22:06:41.631Z,84.38
2022-10-14T22:09:07.879Z,84.19
2022-10-14T22:11:34.153Z,84.19
2022-10-14T22:14:00.404Z,83.84
2022-10-14T22:16:28.740Z,84.10
2022-10-14T22:18:55.089Z,83.76
2022-10-14T22:21:21.356Z,83.50
2022-10-14T22:23:47.617Z,83.48
2022-10-14T22:26:13.896Z,83.32
2022-10-14T22:28:40.187Z,83.39
2022-10-14T22:31:06.495Z,83.25
2022-10-14T22:33:32.747Z,83.07
2022-10-14T22:35:59.123Z,82.86
2022-10-14T22:38:25.379Z,83.02
2022-10-14T22:40:51.630Z,82.55
2022-10-14T22:43:17.872Z,82.48
2022-10-14T22:45:44.122Z,82.33
2022-10-14T22:48:10.370Z,82.30
2022-10-14T22:50:36.651Z,82.03
2022-10-14T22:53:02.886Z,82.32
2022-10-14T22:55:29.290Z,82.75
2022-10-14T22:57:55.547Z,83.23
2022-10-14T23:00:21.886Z,83.84
2022-10-14T23:02:48.181Z,83.80
2022-10-14T23:05:14.468Z,84.28
2022-10-14T23:07:40.926Z,85.00
2022-10-14T23:10:07.186Z,85.61
2022-10-14T23:12:33.444Z,85.95
2022-10-14T23:14:59.710Z,86.38
2022-10-14T23:17:25.963Z,87.00
2022-10-14T23:19:52.232Z,86.81
2022-10-14T23:22:18.499Z,87.86
2022-10-14T23:24:44.765Z,87.55
2022-10-14T23:27:11.010Z,87.51
2022-10-14T23:29:37.282Z,87.93
2022-10-14T23:32:03.539Z,87.82
2022-10-14T23:34:30.447Z,87.92
2022-10-14T23:36:56.693Z,87.92
2022-10-14T23:39:22.976Z,87.77
2022-10-14T23:41:49.222Z,88.42
2022-10-14T23:44:15.470Z,88.44
2022-10-14T23:46:41.712Z,88.49
2022-10-14T23:49:24.859Z,88.39
2022-10-14T23:51:51.602Z,88.37
2022-10-14T23:54:17.867Z,88.92
2022-10-14T23:56:44.113Z,88.97
2022-10-14T23:59:10.370Z,88.62
